sensor_id;sensor_type;location;lat;lon;timestamp;P1;durP1;ratioP1;P2;durP2;ratioP2
9960;SDS011;5021;51.506;11.320;2022-09-24T00:02:06;2.70;;;2.37;;
9960;SDS011;5021;51.506;11.320;2022-09-24T00:04:35;4.23;;;2.37;;
9960;SDS011;5021;51.506;11.320;2022-09-24T00:07:01;2.50;;;2.30;;
9960;SDS011;5021;51.506;11.320;2022-09-24T00:09:27;2.43;;;2.23;;
9960;SDS011;5021;51.506;11.320;2022-09-24T00:11:53;2.70;;;2.50;;
9960;SDS011;5021;51.506;11.320;2022-09-24T00:14:19;2.67;;;2.17;;
9960;SDS011;5021;51.506;11.320;2022-09-24T00:16:45;4.07;;;2.70;;
9960;SDS011;5021;51.506;11.320;2022-09-24T00:19:12;2.80;;;2.60;;
9960;SDS011;5021;51.506;11.320;2022-09-24T00:21:38;2.87;;;2.30;;
9960;SDS011;5021;51.506;11.320;2022-09-24T00:24:06;2.43;;;2.20;;
9960;SDS011;5021;51.506;11.320;2022-09-24T00:26:33;3.07;;;2.80;;
9960;SDS011;5021;51.506;11.320;2022-09-24T00:29:16;4.33;;;2.90;;
9960;SDS011;5021;51.506;11.320;2022-09-24T00:31:42;4.30;;;3.43;;
9960;SDS011;5021;51.506;11.320;2022-09-24T00:34:08;2.80;;;2.60;;
9960;SDS011;5021;51.506;11.320;2022-09-24T00:36:34;2.70;;;2.50;;
9960;SDS011;5021;51.506;11.320;2022-09-24T00:39:01;2.73;;;2.40;;
9960;SDS011;5021;51.506;11.320;2022-09-24T00:41:31;4.30;;;3.17;;
9960;SDS011;5021;51.506;11.320;2022-09-24T00:43:57;4.40;;;2.80;;
9960;SDS011;5021;51.506;11.320;2022-09-24T00:46:25;3.13;;;2.83;;
9960;SDS011;5021;51.506;11.320;2022-09-24T00:48:57;3.87;;;2.50;;
9960;SDS011;5021;51.506;11.320;2022-09-24T00:51:24;3.37;;;2.97;;
9960;SDS011;5021;51.506;11.320;2022-09-24T00:53:53;5.27;;;3.03;;
9960;SDS011;5021;51.506;11.320;2022-09-24T00:56:19;3.30;;;3.00;;
9960;SDS011;5021;51.506;11.320;2022-09-24T00:58:48;2.70;;;2.50;;
9960;SDS011;5021;51.506;11.320;2022-09-24T01:01:16;4.50;;;2.90;;
9960;SDS011;5021;51.506;11.320;2022-09-24T01:03:42;3.80;;;3.40;;
9960;SDS011;5021;51.506;11.320;2022-09-24T01:06:09;4.53;;;3.30;;
9960;SDS011;5021;51.506;11.320;2022-09-24T01:08:35;4.23;;;3.83;;
9960;SDS011;5021;51.506;11.320;2022-09-24T01:18:43;3.93;;;3.10;;
9960;SDS011;5021;51.506;11.320;2022-09-24T01:21:22;3.50;;;2.83;;
9960;SDS011;5021;51.506;11.320;2022-09-24T01:31:40;3.40;;;2.70;;
9960;SDS011;5021;51.506;11.320;2022-09-24T01:34:10;3.23;;;2.73;;
9960;SDS011;5021;51.506;11.320;2022-09-24T01:36:39;2.80;;;2.60;;
9960;SDS011;5021;51.506;11.320;2022-09-24T01:39:06;3.07;;;2.77;;
9960;SDS011;5021;51.506;11.320;2022-09-24T01:41:33;3.67;;;2.80;;
9960;SDS011;5021;51.506;11.320;2022-09-24T01:44:00;4.23;;;2.57;;
9960;SDS011;5021;51.506;11.320;2022-09-24T01:46:29;3.60;;;3.07;;
9960;SDS011;5021;51.506;11.320;2022-09-24T01:48:55;5.43;;;4.40;;
9960;SDS011;5021;51.506;11.320;2022-09-24T01:53:56;3.33;;;2.90;;
9960;SDS011;5021;51.506;11.320;2022-09-24T01:56:29;2.77;;;2.57;;
9960;SDS011;5021;51.506;11.320;2022-09-24T01:59:04;3.63;;;2.80;;
9960;SDS011;5021;51.506;11.320;2022-09-24T02:01:33;3.63;;;2.80;;
9960;SDS011;5021;51.506;11.320;2022-09-24T02:04:03;3.13;;;2.83;;
9960;SDS011;5021;51.506;11.320;2022-09-24T02:06:32;3.37;;;3.03;;
9960;SDS011;5021;51.506;11.320;2022-09-24T02:09:00;4.13;;;3.10;;
9960;SDS011;5021;51.506;11.320;2022-09-24T02:11:26;4.37;;;3.20;;
9960;SDS011;5021;51.506;11.320;2022-09-24T02:13:54;3.10;;;2.80;;
9960;SDS011;5021;51.506;11.320;2022-09-24T02:16:29;3.97;;;2.90;;
9960;SDS011;5021;51.506;11.320;2022-09-24T02:18:56;3.90;;;3.00;;
9960;SDS011;5021;51.506;11.320;2022-09-24T02:21:23;3.93;;;3.07;;
9960;SDS011;5021;51.506;11.320;2022-09-24T02:23:50;3.43;;;2.90;;
9960;SDS011;5021;51.506;11.320;2022-09-24T02:26:19;3.20;;;2.90;;
9960;SDS011;5021;51.506;11.320;2022-09-24T02:28:45;3.30;;;3.00;;
9960;SDS011;5021;51.506;11.320;2022-09-24T02:31:30;3.80;;;3.17;;
9960;SDS011;5021;51.506;11.320;2022-09-24T02:33:58;3.43;;;3.13;;
9960;SDS011;5021;51.506;11.320;2022-09-24T02:36:44;4.50;;;3.60;;
9960;SDS011;5021;51.506;11.320;2022-09-24T02:39:11;3.93;;;3.37;;
9960;SDS011;5021;51.506;11.320;2022-09-24T02:41:37;3.27;;;2.97;;
9960;SDS011;5021;51.506;11.320;2022-09-24T02:44:03;3.60;;;3.00;;
9960;SDS011;5021;51.506;11.320;2022-09-24T02:46:29;3.80;;;2.90;;
9960;SDS011;5021;51.506;11.320;2022-09-24T02:48:55;3.67;;;3.37;;
9960;SDS011;5021;51.506;11.320;2022-09-24T02:51:21;3.60;;;3.30;;
9960;SDS011;5021;51.506;11.320;2022-09-24T02:53:47;5.30;;;3.60;;
9960;SDS011;5021;51.506;11.320;2022-09-24T02:56:14;3.93;;;3.43;;
9960;SDS011;5021;51.506;11.320;2022-09-24T02:58:40;4.33;;;3.63;;
9960;SDS011;5021;51.506;11.320;2022-09-24T03:01:07;3.90;;;3.57;;
9960;SDS011;5021;51.506;11.320;2022-09-24T03:03:33;6.17;;;5.37;;
9960;SDS011;5021;51.506;11.320;2022-09-24T03:05:59;10.37;;;8.00;;
9960;SDS011;5021;51.506;11.320;2022-09-24T03:08:25;9.87;;;7.83;;
9960;SDS011;5021;51.506;11.320;2022-09-24T03:10:51;7.90;;;6.53;;
9960;SDS011;5021;51.506;11.320;2022-09-24T03:13:19;8.27;;;6.57;;
9960;SDS011;5021;51.506;11.320;2022-09-24T03:15:45;7.83;;;6.90;;
9960;SDS011;5021;51.506;11.320;2022-09-24T03:18:12;7.67;;;6.23;;
9960;SDS011;5021;51.506;11.320;2022-09-24T03:20:38;6.67;;;5.60;;
9960;SDS011;5021;51.506;11.320;2022-09-24T03:23:04;6.17;;;5.47;;
9960;SDS011;5021;51.506;11.320;2022-09-24T03:25:30;6.20;;;5.17;;
9960;SDS011;5021;51.506;11.320;2022-09-24T03:27:58;6.17;;;4.57;;
9960;SDS011;5021;51.506;11.320;2022-09-24T03:30:23;4.80;;;4.37;;
9960;SDS011;5021;51.506;11.320;2022-09-24T03:33:08;5.07;;;4.50;;
9960;SDS011;5021;51.506;11.320;2022-09-24T03:35:34;5.43;;;4.20;;
9960;SDS011;5021;51.506;11.320;2022-09-24T03:38:00;4.43;;;4.03;;
9960;SDS011;5021;51.506;11.320;2022-09-24T03:40:26;6.97;;;3.90;;
9960;SDS011;5021;51.506;11.320;2022-09-24T03:42:52;5.10;;;3.93;;
9960;SDS011;5021;51.506;11.320;2022-09-24T03:45:18;4.67;;;4.13;;
9960;SDS011;5021;51.506;11.320;2022-09-24T03:47:44;4.53;;;3.70;;
9960;SDS011;5021;51.506;11.320;2022-09-24T03:50:10;5.00;;;3.87;;
9960;SDS011;5021;51.506;11.320;2022-09-24T03:52:39;4.80;;;4.07;;
9960;SDS011;5021;51.506;11.320;2022-09-24T03:55:06;4.67;;;4.00;;
9960;SDS011;5021;51.506;11.320;2022-09-24T03:57:32;7.93;;;6.43;;
9960;SDS011;5021;51.506;11.320;2022-09-24T03:59:58;10.33;;;8.03;;
9960;SDS011;5021;51.506;11.320;2022-09-24T04:02:24;6.70;;;5.10;;
9960;SDS011;5021;51.506;11.320;2022-09-24T04:04:50;7.37;;;5.53;;
9960;SDS011;5021;51.506;11.320;2022-09-24T04:07:16;4.50;;;4.03;;
9960;SDS011;5021;51.506;11.320;2022-09-24T04:09:42;4.67;;;4.17;;
9960;SDS011;5021;51.506;11.320;2022-09-24T04:12:08;4.90;;;4.50;;
9960;SDS011;5021;51.506;11.320;2022-09-24T04:14:34;5.30;;;4.77;;
9960;SDS011;5021;51.506;11.320;2022-09-24T04:17:01;6.10;;;4.70;;
9960;SDS011;5021;51.506;11.320;2022-09-24T04:19:27;7.80;;;7.03;;
9960;SDS011;5021;51.506;11.320;2022-09-24T04:21:55;6.73;;;5.77;;
9960;SDS011;5021;51.506;11.320;2022-09-24T04:24:21;4.80;;;4.30;;
9960;SDS011;5021;51.506;11.320;2022-09-24T04:26:47;5.13;;;4.63;;
9960;SDS011;5021;51.506;11.320;2022-09-24T04:29:14;5.13;;;4.63;;
9960;SDS011;5021;51.506;11.320;2022-09-24T04:31:40;5.17;;;4.20;;
9960;SDS011;5021;51.506;11.320;2022-09-24T04:34:07;5.93;;;4.30;;
9960;SDS011;5021;51.506;11.320;2022-09-24T04:36:33;5.03;;;4.33;;
9960;SDS011;5021;51.506;11.320;2022-09-24T04:38:59;3.90;;;3.50;;
9960;SDS011;5021;51.506;11.320;2022-09-24T04:41:27;4.37;;;3.97;;
9960;SDS011;5021;51.506;11.320;2022-09-24T04:43:53;4.67;;;3.90;;
9960;SDS011;5021;51.506;11.320;2022-09-24T04:46:19;4.13;;;3.77;;
9960;SDS011;5021;51.506;11.320;2022-09-24T04:48:45;4.00;;;3.70;;
9960;SDS011;5021;51.506;11.320;2022-09-24T04:51:11;4.83;;;3.67;;
9960;SDS011;5021;51.506;11.320;2022-09-24T04:53:37;4.90;;;4.40;;
9960;SDS011;5021;51.506;11.320;2022-09-24T04:56:03;5.73;;;4.20;;
9960;SDS011;5021;51.506;11.320;2022-09-24T04:58:29;5.63;;;4.47;;
9960;SDS011;5021;51.506;11.320;2022-09-24T05:00:56;4.43;;;4.03;;
9960;SDS011;5021;51.506;11.320;2022-09-24T05:03:21;4.40;;;4.00;;
9960;SDS011;5021;51.506;11.320;2022-09-24T05:05:47;5.20;;;4.23;;
9960;SDS011;5021;51.506;11.320;2022-09-24T05:08:17;4.10;;;3.73;;
9960;SDS011;5021;51.506;11.320;2022-09-24T05:10:43;4.43;;;4.03;;
9960;SDS011;5021;51.506;11.320;2022-09-24T05:13:09;6.13;;;3.90;;
9960;SDS011;5021;51.506;11.320;2022-09-24T05:15:35;3.93;;;3.60;;
9960;SDS011;5021;51.506;11.320;2022-09-24T05:18:01;4.70;;;3.93;;
9960;SDS011;5021;51.506;11.320;2022-09-24T05:20:27;4.17;;;3.73;;
9960;SDS011;5021;51.506;11.320;2022-09-24T05:22:53;4.93;;;4.27;;
9960;SDS011;5021;51.506;11.320;2022-09-24T05:25:19;4.33;;;3.70;;
9960;SDS011;5021;51.506;11.320;2022-09-24T05:27:48;4.67;;;3.60;;
9960;SDS011;5021;51.506;11.320;2022-09-24T05:30:14;6.77;;;4.10;;
9960;SDS011;5021;51.506;11.320;2022-09-24T05:32:40;5.23;;;3.87;;
9960;SDS011;5021;51.506;11.320;2022-09-24T05:35:06;4.30;;;3.90;;
9960;SDS011;5021;51.506;11.320;2022-09-24T05:37:34;5.50;;;4.13;;
9960;SDS011;5021;51.506;11.320;2022-09-24T05:40:00;4.17;;;3.77;;
9960;SDS011;5021;51.506;11.320;2022-09-24T05:42:46;4.60;;;4.00;;
9960;SDS011;5021;51.506;11.320;2022-09-24T05:45:12;6.27;;;4.47;;
9960;SDS011;5021;51.506;11.320;2022-09-24T05:47:41;5.20;;;4.63;;
9960;SDS011;5021;51.506;11.320;2022-09-24T05:50:07;4.63;;;4.23;;
9960;SDS011;5021;51.506;11.320;2022-09-24T05:52:33;6.90;;;6.17;;
9960;SDS011;5021;51.506;11.320;2022-09-24T05:54:59;10.87;;;7.53;;
9960;SDS011;5021;51.506;11.320;2022-09-24T05:57:25;8.57;;;6.87;;
9960;SDS011;5021;51.506;11.320;2022-09-24T05:59:51;10.90;;;6.83;;
9960;SDS011;5021;51.506;11.320;2022-09-24T06:02:18;9.17;;;6.70;;
9960;SDS011;5021;51.506;11.320;2022-09-24T06:04:44;13.83;;;9.60;;
9960;SDS011;5021;51.506;11.320;2022-09-24T06:07:09;12.33;;;9.00;;
9960;SDS011;5021;51.506;11.320;2022-09-24T06:09:36;9.13;;;7.63;;
9960;SDS011;5021;51.506;11.320;2022-09-24T06:12:02;9.07;;;7.13;;
9960;SDS011;5021;51.506;11.320;2022-09-24T06:14:28;8.20;;;6.50;;
9960;SDS011;5021;51.506;11.320;2022-09-24T06:16:53;8.23;;;6.20;;
9960;SDS011;5021;51.506;11.320;2022-09-24T06:19:21;8.40;;;6.23;;
9960;SDS011;5021;51.506;11.320;2022-09-24T06:21:47;12.63;;;9.20;;
9960;SDS011;5021;51.506;11.320;2022-09-24T06:24:13;9.17;;;7.03;;
9960;SDS011;5021;51.506;11.320;2022-09-24T06:26:39;12.07;;;8.67;;
9960;SDS011;5021;51.506;11.320;2022-09-24T06:29:05;15.70;;;10.60;;
9960;SDS011;5021;51.506;11.320;2022-09-24T06:31:31;13.80;;;8.20;;
9960;SDS011;5021;51.506;11.320;2022-09-24T06:33:58;10.43;;;7.33;;
9960;SDS011;5021;51.506;11.320;2022-09-24T06:36:26;13.50;;;7.83;;
9960;SDS011;5021;51.506;11.320;2022-09-24T06:38:53;10.53;;;7.07;;
9960;SDS011;5021;51.506;11.320;2022-09-24T06:41:19;7.07;;;5.70;;
9960;SDS011;5021;51.506;11.320;2022-09-24T06:43:45;8.60;;;6.00;;
9960;SDS011;5021;51.506;11.320;2022-09-24T06:46:11;9.83;;;7.50;;
9960;SDS011;5021;51.506;11.320;2022-09-24T06:48:39;7.93;;;5.47;;
9960;SDS011;5021;51.506;11.320;2022-09-24T06:51:05;9.13;;;6.13;;
9960;SDS011;5021;51.506;11.320;2022-09-24T06:53:31;7.07;;;6.00;;
9960;SDS011;5021;51.506;11.320;2022-09-24T06:55:57;10.37;;;6.77;;
9960;SDS011;5021;51.506;11.320;2022-09-24T06:58:24;7.33;;;5.90;;
9960;SDS011;5021;51.506;11.320;2022-09-24T07:00:53;6.53;;;5.00;;
9960;SDS011;5021;51.506;11.320;2022-09-24T07:03:22;4.90;;;4.27;;
9960;SDS011;5021;51.506;11.320;2022-09-24T07:05:49;6.63;;;4.63;;
9960;SDS011;5021;51.506;11.320;2022-09-24T07:08:15;5.17;;;4.20;;
9960;SDS011;5021;51.506;11.320;2022-09-24T07:10:45;5.57;;;4.73;;
9960;SDS011;5021;51.506;11.320;2022-09-24T07:13:13;6.40;;;4.70;;
9960;SDS011;5021;51.506;11.320;2022-09-24T07:15:40;4.63;;;4.10;;
9960;SDS011;5021;51.506;11.320;2022-09-24T07:18:06;5.27;;;4.00;;
9960;SDS011;5021;51.506;11.320;2022-09-24T07:20:32;4.53;;;3.60;;
9960;SDS011;5021;51.506;11.320;2022-09-24T07:23:00;5.03;;;3.83;;
9960;SDS011;5021;51.506;11.320;2022-09-24T07:25:26;4.20;;;3.80;;
9960;SDS011;5021;51.506;11.320;2022-09-24T07:27:52;5.67;;;4.33;;
9960;SDS011;5021;51.506;11.320;2022-09-24T07:30:18;5.63;;;4.17;;
9960;SDS011;5021;51.506;11.320;2022-09-24T07:32:44;6.03;;;4.60;;
9960;SDS011;5021;51.506;11.320;2022-09-24T07:35:10;6.53;;;5.47;;
9960;SDS011;5021;51.506;11.320;2022-09-24T07:37:36;7.80;;;5.80;;
9960;SDS011;5021;51.506;11.320;2022-09-24T07:40:02;7.47;;;6.47;;
9960;SDS011;5021;51.506;11.320;2022-09-24T07:42:28;6.60;;;6.00;;
9960;SDS011;5021;51.506;11.320;2022-09-24T07:44:54;6.57;;;5.87;;
9960;SDS011;5021;51.506;11.320;2022-09-24T07:47:21;7.80;;;5.53;;
9960;SDS011;5021;51.506;11.320;2022-09-24T07:49:47;7.33;;;6.20;;
9960;SDS011;5021;51.506;11.320;2022-09-24T07:52:13;7.23;;;6.30;;
9960;SDS011;5021;51.506;11.320;2022-09-24T07:54:39;6.83;;;6.17;;
9960;SDS011;5021;51.506;11.320;2022-09-24T07:57:09;6.47;;;5.40;;
9960;SDS011;5021;51.506;11.320;2022-09-24T07:59:38;8.17;;;5.27;;
9960;SDS011;5021;51.506;11.320;2022-09-24T08:02:12;6.10;;;5.50;;
9960;SDS011;5021;51.506;11.320;2022-09-24T08:04:39;7.30;;;6.10;;
9960;SDS011;5021;51.506;11.320;2022-09-24T08:07:06;7.53;;;5.97;;
9960;SDS011;5021;51.506;11.320;2022-09-24T08:09:32;8.53;;;6.63;;
9960;SDS011;5021;51.506;11.320;2022-09-24T08:11:57;7.53;;;6.73;;
9960;SDS011;5021;51.506;11.320;2022-09-24T08:14:23;10.00;;;6.63;;
9960;SDS011;5021;51.506;11.320;2022-09-24T08:16:49;10.20;;;8.07;;
9960;SDS011;5021;51.506;11.320;2022-09-24T08:19:15;9.30;;;7.13;;
9960;SDS011;5021;51.506;11.320;2022-09-24T08:21:41;7.57;;;6.47;;
9960;SDS011;5021;51.506;11.320;2022-09-24T08:24:07;7.60;;;6.27;;
9960;SDS011;5021;51.506;11.320;2022-09-24T08:26:33;8.97;;;6.60;;
9960;SDS011;5021;51.506;11.320;2022-09-24T08:28:59;6.93;;;6.23;;
9960;SDS011;5021;51.506;11.320;2022-09-24T08:31:25;5.10;;;4.60;;
9960;SDS011;5021;51.506;11.320;2022-09-24T08:33:51;7.87;;;6.30;;
9960;SDS011;5021;51.506;11.320;2022-09-24T08:36:17;6.63;;;4.77;;
9960;SDS011;5021;51.506;11.320;2022-09-24T08:38:43;5.87;;;4.70;;
9960;SDS011;5021;51.506;11.320;2022-09-24T08:46:12;5.67;;;4.33;;
9960;SDS011;5021;51.506;11.320;2022-09-24T08:48:58;4.97;;;4.47;;
9960;SDS011;5021;51.506;11.320;2022-09-24T08:51:24;6.03;;;4.80;;
9960;SDS011;5021;51.506;11.320;2022-09-24T08:56:23;5.20;;;4.70;;
9960;SDS011;5021;51.506;11.320;2022-09-24T09:01:19;6.43;;;5.07;;
9960;SDS011;5021;51.506;11.320;2022-09-24T09:06:24;6.97;;;5.80;;
9960;SDS011;5021;51.506;11.320;2022-09-24T09:09:07;7.40;;;6.47;;
9960;SDS011;5021;51.506;11.320;2022-09-24T09:11:34;8.83;;;6.67;;
9960;SDS011;5021;51.506;11.320;2022-09-24T09:14:14;10.00;;;7.00;;
9960;SDS011;5021;51.506;11.320;2022-09-24T09:16:52;7.30;;;6.60;;
9960;SDS011;5021;51.506;11.320;2022-09-24T09:19:21;7.20;;;6.30;;
9960;SDS011;5021;51.506;11.320;2022-09-24T09:21:53;7.63;;;5.80;;
9960;SDS011;5021;51.506;11.320;2022-09-24T09:25:10;6.33;;;5.13;;
9960;SDS011;5021;51.506;11.320;2022-09-24T09:27:11;6.07;;;5.00;;
9960;SDS011;5021;51.506;11.320;2022-09-24T09:29:45;5.90;;;5.30;;
9960;SDS011;5021;51.506;11.320;2022-09-24T09:39:52;5.50;;;5.00;;
9960;SDS011;5021;51.506;11.320;2022-09-24T09:42:32;5.43;;;4.93;;
9960;SDS011;5021;51.506;11.320;2022-09-24T09:47:43;6.13;;;5.53;;
9960;SDS011;5021;51.506;11.320;2022-09-24T09:55:49;4.57;;;4.17;;
9960;SDS011;5021;51.506;11.320;2022-09-24T09:58:20;5.87;;;4.80;;
9960;SDS011;5021;51.506;11.320;2022-09-24T10:00:47;5.17;;;4.70;;
9960;SDS011;5021;51.506;11.320;2022-09-24T10:06:21;4.90;;;4.50;;
9960;SDS011;5021;51.506;11.320;2022-09-24T10:08:48;4.20;;;3.80;;
9960;SDS011;5021;51.506;11.320;2022-09-24T10:11:14;4.93;;;3.90;;
9960;SDS011;5021;51.506;11.320;2022-09-24T10:13:40;5.30;;;4.63;;
9960;SDS011;5021;51.506;11.320;2022-09-24T10:16:08;7.20;;;5.40;;
9960;SDS011;5021;51.506;11.320;2022-09-24T10:18:36;11.13;;;9.20;;
9960;SDS011;5021;51.506;11.320;2022-09-24T10:21:04;8.43;;;6.37;;
9960;SDS011;5021;51.506;11.320;2022-09-24T10:23:43;9.60;;;7.83;;
9960;SDS011;5021;51.506;11.320;2022-09-24T10:26:14;5.27;;;4.77;;
9960;SDS011;5021;51.506;11.320;2022-09-24T10:28:47;4.00;;;3.70;;
9960;SDS011;5021;51.506;11.320;2022-09-24T10:31:33;4.30;;;3.60;;
9960;SDS011;5021;51.506;11.320;2022-09-24T10:34:00;3.70;;;3.40;;
9960;SDS011;5021;51.506;11.320;2022-09-24T10:36:28;3.90;;;3.50;;
9960;SDS011;5021;51.506;11.320;2022-09-24T10:39:00;3.67;;;3.37;;
9960;SDS011;5021;51.506;11.320;2022-09-24T10:41:27;4.07;;;3.67;;
9960;SDS011;5021;51.506;11.320;2022-09-24T10:43:54;3.80;;;3.43;;
9960;SDS011;5021;51.506;11.320;2022-09-24T10:49:01;3.63;;;3.33;;
9960;SDS011;5021;51.506;11.320;2022-09-24T10:51:36;4.43;;;3.30;;
9960;SDS011;5021;51.506;11.320;2022-09-24T11:09:39;4.47;;;3.07;;
9960;SDS011;5021;51.506;11.320;2022-09-24T11:12:13;4.30;;;2.90;;
9960;SDS011;5021;51.506;11.320;2022-09-24T11:17:30;3.70;;;3.27;;
9960;SDS011;5021;51.506;11.320;2022-09-24T11:20:04;4.77;;;3.47;;
9960;SDS011;5021;51.506;11.320;2022-09-24T11:28:03;4.70;;;4.10;;
9960;SDS011;5021;51.506;11.320;2022-09-24T11:56:45;4.47;;;2.97;;
9960;SDS011;5021;51.506;11.320;2022-09-24T11:59:17;4.00;;;2.83;;
9960;SDS011;5021;51.506;11.320;2022-09-24T12:01:47;8.77;;;3.33;;
9960;SDS011;5021;51.506;11.320;2022-09-24T12:04:18;4.13;;;3.17;;
9960;SDS011;5021;51.506;11.320;2022-09-24T12:06:50;3.80;;;2.87;;
9960;SDS011;5021;51.506;11.320;2022-09-24T12:12:26;2.80;;;2.50;;
9960;SDS011;5021;51.506;11.320;2022-09-24T12:14:54;4.33;;;3.03;;
9960;SDS011;5021;51.506;11.320;2022-09-24T12:17:30;3.33;;;3.03;;
9960;SDS011;5021;51.506;11.320;2022-09-24T12:19:58;3.90;;;2.57;;
9960;SDS011;5021;51.506;11.320;2022-09-24T12:22:25;5.20;;;2.80;;
9960;SDS011;5021;51.506;11.320;2022-09-24T12:24:52;3.10;;;2.80;;
9960;SDS011;5021;51.506;11.320;2022-09-24T12:27:24;4.20;;;3.27;;
9960;SDS011;5021;51.506;11.320;2022-09-24T12:30:27;3.90;;;3.60;;
9960;SDS011;5021;51.506;11.320;2022-09-24T12:33:05;3.70;;;3.17;;
9960;SDS011;5021;51.506;11.320;2022-09-24T12:38:15;3.73;;;3.03;;
9960;SDS011;5021;51.506;11.320;2022-09-24T12:40:49;3.40;;;3.10;;
9960;SDS011;5021;51.506;11.320;2022-09-24T12:46:03;4.00;;;3.37;;
9960;SDS011;5021;51.506;11.320;2022-09-24T12:48:29;5.80;;;3.13;;
9960;SDS011;5021;51.506;11.320;2022-09-24T12:50:59;3.20;;;2.90;;
9960;SDS011;5021;51.506;11.320;2022-09-24T12:53:28;4.47;;;2.77;;
9960;SDS011;5021;51.506;11.320;2022-09-24T12:55:57;4.87;;;3.53;;
9960;SDS011;5021;51.506;11.320;2022-09-24T12:58:28;4.67;;;3.23;;
9960;SDS011;5021;51.506;11.320;2022-09-24T13:01:11;3.70;;;3.00;;
9960;SDS011;5021;51.506;11.320;2022-09-24T13:03:38;5.73;;;3.60;;
9960;SDS011;5021;51.506;11.320;2022-09-24T13:06:18;5.87;;;3.90;;
9960;SDS011;5021;51.506;11.320;2022-09-24T13:08:45;4.60;;;3.47;;
9960;SDS011;5021;51.506;11.320;2022-09-24T13:11:27;3.60;;;3.10;;
9960;SDS011;5021;51.506;11.320;2022-09-24T13:16:41;3.07;;;2.80;;
9960;SDS011;5021;51.506;11.320;2022-09-24T13:19:20;4.40;;;3.20;;
9960;SDS011;5021;51.506;11.320;2022-09-24T13:21:55;4.10;;;3.10;;
9960;SDS011;5021;51.506;11.320;2022-09-24T13:24:29;4.13;;;3.20;;
9960;SDS011;5021;51.506;11.320;2022-09-24T13:27:08;4.53;;;2.70;;
9960;SDS011;5021;51.506;11.320;2022-09-24T13:29:37;3.60;;;3.10;;
9960;SDS011;5021;51.506;11.320;2022-09-24T13:32:04;3.77;;;3.13;;
9960;SDS011;5021;51.506;11.320;2022-09-24T13:34:30;2.83;;;2.53;;
9960;SDS011;5021;51.506;11.320;2022-09-24T13:37:45;3.80;;;3.00;;
9960;SDS011;5021;51.506;11.320;2022-09-24T13:42:17;5.67;;;5.17;;
9960;SDS011;5021;51.506;11.320;2022-09-24T13:44:46;7.50;;;6.80;;
9960;SDS011;5021;51.506;11.320;2022-09-24T13:49:40;3.43;;;3.13;;
9960;SDS011;5021;51.506;11.320;2022-09-24T13:52:10;4.63;;;2.73;;
9960;SDS011;5021;51.506;11.320;2022-09-24T13:54:42;3.47;;;3.10;;
9960;SDS011;5021;51.506;11.320;2022-09-24T13:57:12;5.70;;;3.77;;
9960;SDS011;5021;51.506;11.320;2022-09-24T13:59:38;8.00;;;5.53;;
9960;SDS011;5021;51.506;11.320;2022-09-24T14:02:19;12.20;;;8.13;;
9960;SDS011;5021;51.506;11.320;2022-09-24T14:04:47;12.63;;;8.33;;
9960;SDS011;5021;51.506;11.320;2022-09-24T14:07:18;3.83;;;3.37;;
9960;SDS011;5021;51.506;11.320;2022-09-24T14:09:44;5.43;;;3.90;;
9960;SDS011;5021;51.506;11.320;2022-09-24T14:12:13;5.53;;;3.47;;
9960;SDS011;5021;51.506;11.320;2022-09-24T14:14:43;4.97;;;3.70;;
9960;SDS011;5021;51.506;11.320;2022-09-24T14:17:13;4.17;;;3.07;;
9960;SDS011;5021;51.506;11.320;2022-09-24T14:19:40;3.97;;;3.10;;
9960;SDS011;5021;51.506;11.320;2022-09-24T14:22:10;3.53;;;3.20;;
9960;SDS011;5021;51.506;11.320;2022-09-24T14:24:43;8.37;;;3.47;;
9960;SDS011;5021;51.506;11.320;2022-09-24T14:27:13;5.90;;;2.77;;
9960;SDS011;5021;51.506;11.320;2022-09-24T14:29:43;7.57;;;6.17;;
9960;SDS011;5021;51.506;11.320;2022-09-24T14:32:20;4.00;;;2.70;;
9960;SDS011;5021;51.506;11.320;2022-09-24T14:34:49;2.83;;;2.60;;
9960;SDS011;5021;51.506;11.320;2022-09-24T14:37:17;2.97;;;2.10;;
9960;SDS011;5021;51.506;11.320;2022-09-24T14:39:44;4.13;;;2.47;;
9960;SDS011;5021;51.506;11.320;2022-09-24T14:42:12;3.53;;;2.70;;
9960;SDS011;5021;51.506;11.320;2022-09-24T14:44:43;3.23;;;2.93;;
9960;SDS011;5021;51.506;11.320;2022-09-24T14:47:30;3.90;;;2.70;;
9960;SDS011;5021;51.506;11.320;2022-09-24T14:49:56;7.20;;;3.30;;
9960;SDS011;5021;51.506;11.320;2022-09-24T14:52:26;3.73;;;3.00;;
9960;SDS011;5021;51.506;11.320;2022-09-24T14:55:00;17.83;;;15.43;;
9960;SDS011;5021;51.506;11.320;2022-09-24T14:57:26;24.80;;;18.97;;
9960;SDS011;5021;51.506;11.320;2022-09-24T14:59:52;11.07;;;8.20;;
9960;SDS011;5021;51.506;11.320;2022-09-24T15:02:19;6.53;;;5.17;;
9960;SDS011;5021;51.506;11.320;2022-09-24T15:04:46;8.57;;;4.00;;
9960;SDS011;5021;51.506;11.320;2022-09-24T15:07:14;5.30;;;4.13;;
9960;SDS011;5021;51.506;11.320;2022-09-24T15:09:40;3.20;;;2.90;;
9960;SDS011;5021;51.506;11.320;2022-09-24T15:12:07;4.80;;;2.90;;
9960;SDS011;5021;51.506;11.320;2022-09-24T15:14:33;2.50;;;2.30;;
9960;SDS011;5021;51.506;11.320;2022-09-24T15:17:19;2.43;;;2.23;;
9960;SDS011;5021;51.506;11.320;2022-09-24T15:19:45;2.50;;;2.13;;
9960;SDS011;5021;51.506;11.320;2022-09-24T15:22:11;3.40;;;2.53;;
9960;SDS011;5021;51.506;11.320;2022-09-24T15:24:37;3.00;;;2.70;;
9960;SDS011;5021;51.506;11.320;2022-09-24T15:27:05;4.53;;;3.30;;
9960;SDS011;5021;51.506;11.320;2022-09-24T15:29:31;3.70;;;3.37;;
9960;SDS011;5021;51.506;11.320;2022-09-24T15:31:57;4.37;;;3.23;;
9960;SDS011;5021;51.506;11.320;2022-09-24T15:34:23;4.70;;;4.00;;
9960;SDS011;5021;51.506;11.320;2022-09-24T15:36:54;5.63;;;5.00;;
9960;SDS011;5021;51.506;11.320;2022-09-24T15:39:20;4.30;;;3.40;;
9960;SDS011;5021;51.506;11.320;2022-09-24T15:41:47;4.10;;;2.80;;
9960;SDS011;5021;51.506;11.320;2022-09-24T15:44:23;5.40;;;3.17;;
9960;SDS011;5021;51.506;11.320;2022-09-24T15:46:49;3.90;;;3.30;;
9960;SDS011;5021;51.506;11.320;2022-09-24T15:49:16;4.60;;;3.60;;
9960;SDS011;5021;51.506;11.320;2022-09-24T15:51:46;5.03;;;3.87;;
9960;SDS011;5021;51.506;11.320;2022-09-24T15:54:12;5.30;;;4.80;;
9960;SDS011;5021;51.506;11.320;2022-09-24T15:56:38;7.80;;;5.07;;
9960;SDS011;5021;51.506;11.320;2022-09-24T15:59:09;5.43;;;3.57;;
9960;SDS011;5021;51.506;11.320;2022-09-24T16:01:37;4.50;;;3.70;;
9960;SDS011;5021;51.506;11.320;2022-09-24T16:04:03;6.40;;;4.03;;
9960;SDS011;5021;51.506;11.320;2022-09-24T16:06:29;7.83;;;4.70;;
9960;SDS011;5021;51.506;11.320;2022-09-24T16:08:55;5.20;;;4.63;;
9960;SDS011;5021;51.506;11.320;2022-09-24T16:11:21;6.33;;;4.70;;
9960;SDS011;5021;51.506;11.320;2022-09-24T16:13:48;5.17;;;4.67;;
9960;SDS011;5021;51.506;11.320;2022-09-24T16:16:14;5.93;;;5.27;;
9960;SDS011;5021;51.506;11.320;2022-09-24T16:18:40;6.40;;;5.80;;
9960;SDS011;5021;51.506;11.320;2022-09-24T16:21:06;7.50;;;6.53;;
9960;SDS011;5021;51.506;11.320;2022-09-24T16:23:33;8.83;;;7.27;;
9960;SDS011;5021;51.506;11.320;2022-09-24T16:25:59;8.50;;;6.23;;
9960;SDS011;5021;51.506;11.320;2022-09-24T16:28:25;7.50;;;6.73;;
9960;SDS011;5021;51.506;11.320;2022-09-24T16:30:52;7.73;;;6.90;;
9960;SDS011;5021;51.506;11.320;2022-09-24T16:33:18;9.47;;;7.43;;
9960;SDS011;5021;51.506;11.320;2022-09-24T16:35:44;7.60;;;6.90;;
9960;SDS011;5021;51.506;11.320;2022-09-24T16:38:10;10.13;;;8.83;;
9960;SDS011;5021;51.506;11.320;2022-09-24T16:40:36;8.07;;;6.77;;
9960;SDS011;5021;51.506;11.320;2022-09-24T16:43:02;7.10;;;6.50;;
9960;SDS011;5021;51.506;11.320;2022-09-24T16:45:29;7.17;;;6.47;;
9960;SDS011;5021;51.506;11.320;2022-09-24T16:47:55;8.23;;;6.80;;
9960;SDS011;5021;51.506;11.320;2022-09-24T16:50:21;6.60;;;5.87;;
9960;SDS011;5021;51.506;11.320;2022-09-24T16:52:47;6.43;;;5.70;;
9960;SDS011;5021;51.506;11.320;2022-09-24T16:55:14;6.40;;;5.80;;
9960;SDS011;5021;51.506;11.320;2022-09-24T16:57:40;6.40;;;5.60;;
9960;SDS011;5021;51.506;11.320;2022-09-24T17:00:06;6.60;;;5.20;;
9960;SDS011;5021;51.506;11.320;2022-09-24T17:02:33;6.87;;;5.27;;
9960;SDS011;5021;51.506;11.320;2022-09-24T17:04:59;5.83;;;5.23;;
9960;SDS011;5021;51.506;11.320;2022-09-24T17:07:28;7.03;;;4.87;;